sensor_id;sensor_type;location;lat;lon;timestamp;temperature;humidity
22674;DHT22;11504;43.334;21.918;2023-08-30T00:04:28;22.2;100.0
22674;DHT22;11504;43.334;21.918;2023-08-30T00:09:05;22.2;100.0
22674;DHT22;11504;43.334;21.918;2023-08-30T00:13:41;22.1;100.0
22674;DHT22;11504;43.334;21.918;2023-08-30T00:18:18;22.1;100.0
22674;DHT22;11504;43.334;21.918;2023-08-30T00:22:56;22.1;100.0
22674;DHT22;11504;43.334;21.918;2023-08-30T00:27:32;22.0;100.0
22674;DHT22;11504;43.334;21.918;2023-08-30T00:32:09;22.0;100.0
22674;DHT22;11504;43.334;21.918;2023-08-30T00:36:46;22.0;100.0
22674;DHT22;11504;43.334;21.918;2023-08-30T00:41:23;22.0;100.0
22674;DHT22;11504;43.334;21.918;2023-08-30T00:46:00;22.1;100.0
22674;DHT22;11504;43.334;21.918;2023-08-30T00:50:38;22.1;100.0
22674;DHT22;11504;43.334;21.918;2023-08-30T00:55:18;22.1;100.0
22674;DHT22;11504;43.334;21.918;2023-08-30T00:59:55;22.1;100.0
22674;DHT22;11504;43.334;21.918;2023-08-30T01:04:34;22.1;100.0
22674;DHT22;11504;43.334;21.918;2023-08-30T01:09:11;22.1;100.0
22674;DHT22;11504;43.334;21.918;2023-08-30T01:13:53;22.0;100.0
22674;DHT22;11504;43.334;21.918;2023-08-30T01:18:46;22.0;100.0
22674;DHT22;11504;43.334;21.918;2023-08-30T01:23:37;21.9;100.0
22674;DHT22;11504;43.334;21.918;2023-08-30T01:28:36;21.9;100.0
22674;DHT22;11504;43.334;21.918;2023-08-30T01:33:16;21.8;100.0
22674;DHT22;11504;43.334;21.918;2023-08-30T01:37:55;21.8;100.0
22674;DHT22;11504;43.334;21.918;2023-08-30T01:42:37;21.8;100.0
22674;DHT22;11504;43.334;21.918;2023-08-30T01:47:22;21.7;100.0
22674;DHT22;11504;43.334;21.918;2023-08-30T01:52:07;21.7;100.0
22674;DHT22;11504;43.334;21.918;2023-08-30T01:56:50;21.6;100.0
22674;DHT22;11504;43.334;21.918;2023-08-30T02:01:28;21.6;100.0
22674;DHT22;11504;43.334;21.918;2023-08-30T02:06:09;21.6;100.0
22674;DHT22;11504;43.334;21.918;2023-08-30T02:11:14;21.6;100.0
22674;DHT22;11504;43.334;21.918;2023-08-30T02:16:11;21.5;100.0
22674;DHT22;11504;43.334;21.918;2023-08-30T02:20:56;21.5;100.0
22674;DHT22;11504;43.334;21.918;2023-08-30T02:25:33;21.3;100.0
22674;DHT22;11504;43.334;21.918;2023-08-30T02:30:10;21.3;100.0
22674;DHT22;11504;43.334;21.918;2023-08-30T02:34:50;21.2;100.0
22674;DHT22;11504;43.334;21.918;2023-08-30T02:39:28;21.2;100.0
22674;DHT22;11504;43.334;21.918;2023-08-30T02:44:07;21.0;100.0
22674;DHT22;11504;43.334;21.918;2023-08-30T02:48:47;21.0;100.0
22674;DHT22;11504;43.334;21.918;2023-08-30T02:53:23;20.8;100.0
22674;DHT22;11504;43.334;21.918;2023-08-30T02:58:00;20.8;100.0
22674;DHT22;11504;43.334;21.918;2023-08-30T03:02:37;20.8;100.0
22674;DHT22;11504;43.334;21.918;2023-08-30T03:07:14;20.7;100.0
22674;DHT22;11504;43.334;21.918;2023-08-30T03:11:51;20.7;100.0
22674;DHT22;11504;43.334;21.918;2023-08-30T03:16:27;20.8;100.0
22674;DHT22;11504;43.334;21.918;2023-08-30T03:21:04;20.8;100.0
22674;DHT22;11504;43.334;21.918;2023-08-30T03:25:42;20.9;100.0
22674;DHT22;11504;43.334;21.918;2023-08-30T03:30:19;20.9;100.0
22674;DHT22;11504;43.334;21.918;2023-08-30T03:34:56;20.8;100.0
22674;DHT22;11504;43.334;21.918;2023-08-30T03:39:33;20.8;100.0
22674;DHT22;11504;43.334;21.918;2023-08-30T03:44:10;20.8;100.0
22674;DHT22;11504;43.334;21.918;2023-08-30T03:48:47;20.8;100.0
22674;DHT22;11504;43.334;21.918;2023-08-30T03:53:24;20.7;100.0
22674;DHT22;11504;43.334;21.918;2023-08-30T03:58:02;20.7;100.0
22674;DHT22;11504;43.334;21.918;2023-08-30T04:02:39;20.7;100.0
22674;DHT22;11504;43.334;21.918;2023-08-30T04:07:15;20.6;100.0
22674;DHT22;11504;43.334;21.918;2023-08-30T04:11:52;20.6;100.0
22674;DHT22;11504;43.334;21.918;2023-08-30T04:16:28;20.5;100.0
22674;DHT22;11504;43.334;21.918;2023-08-30T04:21:05;20.5;100.0
22674;DHT22;11504;43.334;21.918;2023-08-30T04:25:44;20.4;100.0
22674;DHT22;11504;43.334;21.918;2023-08-30T04:30:21;20.4;100.0
22674;DHT22;11504;43.334;21.918;2023-08-30T04:34:59;20.6;100.0
22674;DHT22;11504;43.334;21.918;2023-08-30T04:39:36;20.6;100.0
22674;DHT22;11504;43.334;21.918;2023-08-30T04:44:12;20.9;100.0
22674;DHT22;11504;43.334;21.918;2023-08-30T04:48:49;20.9;100.0
22674;DHT22;11504;43.334;21.918;2023-08-30T04:53:25;22.7;100.0
22674;DHT22;11504;43.334;21.918;2023-08-30T04:58:02;22.7;100.0
22674;DHT22;11504;43.334;21.918;2023-08-30T05:02:39;22.7;100.0
22674;DHT22;11504;43.334;21.918;2023-08-30T05:07:15;24.5;100.0
22674;DHT22;11504;43.334;21.918;2023-08-30T05:11:52;24.5;100.0
22674;DHT22;11504;43.334;21.918;2023-08-30T05:16:29;27.6;100.0
22674;DHT22;11504;43.334;21.918;2023-08-30T05:21:05;27.6;100.0
22674;DHT22;11504;43.334;21.918;2023-08-30T05:25:41;30.8;100.0
22674;DHT22;11504;43.334;21.918;2023-08-30T05:30:18;30.8;100.0
22674;DHT22;11504;43.334;21.918;2023-08-30T05:34:55;32.0;100.0
22674;DHT22;11504;43.334;21.918;2023-08-30T05:39:31;32.0;100.0
22674;DHT22;11504;43.334;21.918;2023-08-30T05:44:09;33.1;100.0
22674;DHT22;11504;43.334;21.918;2023-08-30T05:48:46;33.1;100.0
22674;DHT22;11504;43.334;21.918;2023-08-30T05:53:23;34.1;100.0
22674;DHT22;11504;43.334;21.918;2023-08-30T05:58:00;34.1;100.0
22674;DHT22;11504;43.334;21.918;2023-08-30T06:02:37;34.1;100.0
22674;DHT22;11504;43.334;21.918;2023-08-30T06:07:13;35.1;100.0
22674;DHT22;11504;43.334;21.918;2023-08-30T06:11:50;35.1;100.0
22674;DHT22;11504;43.334;21.918;2023-08-30T06:16:27;36.1;100.0
22674;DHT22;11504;43.334;21.918;2023-08-30T06:21:03;36.1;100.0
22674;DHT22;11504;43.334;21.918;2023-08-30T06:25:40;37.1;100.0
22674;DHT22;11504;43.334;21.918;2023-08-30T06:30:17;37.1;100.0
22674;DHT22;11504;43.334;21.918;2023-08-30T06:34:54;37.4;100.0
22674;DHT22;11504;43.334;21.918;2023-08-30T06:39:34;37.4;100.0
22674;DHT22;11504;43.334;21.918;2023-08-30T06:44:11;37.7;100.0
22674;DHT22;11504;43.334;21.918;2023-08-30T06:48:48;37.7;100.0
22674;DHT22;11504;43.334;21.918;2023-08-30T06:53:24;36.8;100.0
22674;DHT22;11504;43.334;21.918;2023-08-30T06:58:03;36.8;100.0
22674;DHT22;11504;43.334;21.918;2023-08-30T07:02:41;36.8;100.0
22674;DHT22;11504;43.334;21.918;2023-08-30T07:07:18;35.8;100.0
22674;DHT22;11504;43.334;21.918;2023-08-30T07:11:54;35.8;100.0
22674;DHT22;11504;43.334;21.918;2023-08-30T07:16:31;34.7;100.0
22674;DHT22;11504;43.334;21.918;2023-08-30T07:21:08;34.7;100.0
22674;DHT22;11504;43.334;21.918;2023-08-30T07:25:45;33.6;100.0
22674;DHT22;11504;43.334;21.918;2023-08-30T07:30:22;33.6;100.0
22674;DHT22;11504;43.334;21.918;2023-08-30T07:34:59;34.2;100.0
22674;DHT22;11504;43.334;21.918;2023-08-30T07:39:35;34.2;100.0
22674;DHT22;11504;43.334;21.918;2023-08-30T07:44:12;34.9;100.0
22674;DHT22;11504;43.334;21.918;2023-08-30T07:48:48;34.9;100.0
22674;DHT22;11504;43.334;21.918;2023-08-30T07:53:25;35.2;100.0
22674;DHT22;11504;43.334;21.918;2023-08-30T07:58:01;35.2;100.0
22674;DHT22;11504;43.334;21.918;2023-08-30T08:02:39;35.2;100.0
22674;DHT22;11504;43.334;21.918;2023-08-30T08:07:16;35.6;100.0
22674;DHT22;11504;43.334;21.918;2023-08-30T08:11:53;35.6;100.0
22674;DHT22;11504;43.334;21.918;2023-08-30T08:16:30;35.7;100.0
22674;DHT22;11504;43.334;21.918;2023-08-30T08:21:07;35.7;100.0
22674;DHT22;11504;43.334;21.918;2023-08-30T08:25:43;35.8;100.0
22674;DHT22;11504;43.334;21.918;2023-08-30T08:30:20;35.8;100.0
22674;DHT22;11504;43.334;21.918;2023-08-30T08:34:57;36.2;100.0
22674;DHT22;11504;43.334;21.918;2023-08-30T08:39:34;36.2;100.0
22674;DHT22;11504;43.334;21.918;2023-08-30T08:44:12;36.6;100.0
22674;DHT22;11504;43.334;21.918;2023-08-30T08:48:50;36.6;100.0
22674;DHT22;11504;43.334;21.918;2023-08-30T08:53:42;36.5;100.0
22674;DHT22;11504;43.334;21.918;2023-08-30T08:58:20;36.5;100.0
22674;DHT22;11504;43.334;21.918;2023-08-30T09:02:57;36.5;100.0
22674;DHT22;11504;43.334;21.918;2023-08-30T09:07:37;36.4;100.0
22674;DHT22;11504;43.334;21.918;2023-08-30T09:12:16;36.4;100.0
22674;DHT22;11504;43.334;21.918;2023-08-30T09:16:54;35.3;100.0
22674;DHT22;11504;43.334;21.918;2023-08-30T09:21:35;35.3;100.0
22674;DHT22;11504;43.334;21.918;2023-08-30T09:26:11;34.3;100.0
22674;DHT22;11504;43.334;21.918;2023-08-30T09:30:49;34.3;100.0
22674;DHT22;11504;43.334;21.918;2023-08-30T09:35:26;33.6;100.0
22674;DHT22;11504;43.334;21.918;2023-08-30T09:40:04;33.6;100.0
22674;DHT22;11504;43.334;21.918;2023-08-30T09:44:44;32.9;100.0
22674;DHT22;11504;43.334;21.918;2023-08-30T09:49:23;32.9;100.0
22674;DHT22;11504;43.334;21.918;2023-08-30T09:54:04;32.4;100.0
22674;DHT22;11504;43.334;21.918;2023-08-30T09:58:53;32.4;100.0
22674;DHT22;11504;43.334;21.918;2023-08-30T10:03:39;31.8;100.0
22674;DHT22;11504;43.334;21.918;2023-08-30T10:08:19;31.8;100.0
22674;DHT22;11504;43.334;21.918;2023-08-30T10:13:05;31.8;100.0
22674;DHT22;11504;43.334;21.918;2023-08-30T10:17:45;31.4;100.0
22674;DHT22;11504;43.334;21.918;2023-08-30T10:22:35;31.4;100.0
22674;DHT22;11504;43.334;21.918;2023-08-30T10:27:22;30.9;100.0
22674;DHT22;11504;43.334;21.918;2023-08-30T10:32:06;30.9;100.0
22674;DHT22;11504;43.334;21.918;2023-08-30T10:36:43;30.6;100.0
22674;DHT22;11504;43.334;21.918;2023-08-30T10:41:31;30.6;100.0
22674;DHT22;11504;43.334;21.918;2023-08-30T10:46:07;30.2;100.0
22674;DHT22;11504;43.334;21.918;2023-08-30T10:50:44;30.2;100.0
22674;DHT22;11504;43.334;21.918;2023-08-30T10:55:22;30.2;100.0
22674;DHT22;11504;43.334;21.918;2023-08-30T11:00:04;30.2;100.0
22674;DHT22;11504;43.334;21.918;2023-08-30T11:04:54;30.2;100.0
22674;DHT22;11504;43.334;21.918;2023-08-30T11:09:36;30.2;100.0
22674;DHT22;11504;43.334;21.918;2023-08-30T11:14:17;30.2;100.0
22674;DHT22;11504;43.334;21.918;2023-08-30T11:18:55;30.2;100.0
22674;DHT22;11504;43.334;21.918;2023-08-30T11:23:32;30.2;100.0
22674;DHT22;11504;43.334;21.918;2023-08-30T11:28:10;30.2;100.0
22674;DHT22;11504;43.334;21.918;2023-08-30T11:32:46;30.2;100.0
22674;DHT22;11504;43.334;21.918;2023-08-30T11:37:23;30.3;100.0
22674;DHT22;11504;43.334;21.918;2023-08-30T11:42:04;30.3;100.0
22674;DHT22;11504;43.334;21.918;2023-08-30T11:46:43;30.4;100.0
22674;DHT22;11504;43.334;21.918;2023-08-30T11:51:20;30.4;100.0
22674;DHT22;11504;43.334;21.918;2023-08-30T11:55:58;30.2;100.0
22674;DHT22;11504;43.334;21.918;2023-08-30T12:00:34;30.2;100.0
22674;DHT22;11504;43.334;21.918;2023-08-30T12:05:12;29.9;100.0
22674;DHT22;11504;43.334;21.918;2023-08-30T12:09:50;29.9;100.0
22674;DHT22;11504;43.334;21.918;2023-08-30T12:14:39;29.8;100.0
22674;DHT22;11504;43.334;21.918;2023-08-30T12:19:15;29.8;100.0
22674;DHT22;11504;43.334;21.918;2023-08-30T12:23:59;29.8;100.0
22674;DHT22;11504;43.334;21.918;2023-08-30T12:28:37;29.8;100.0
22674;DHT22;11504;43.334;21.918;2023-08-30T12:33:18;29.8;100.0
22674;DHT22;11504;43.334;21.918;2023-08-30T12:37:55;29.9;100.0
22674;DHT22;11504;43.334;21.918;2023-08-30T12:42:32;29.9;100.0
22674;DHT22;11504;43.334;21.918;2023-08-30T12:47:10;30.0;100.0
22674;DHT22;11504;43.334;21.918;2023-08-30T12:51:46;30.0;100.0
22674;DHT22;11504;43.334;21.918;2023-08-30T12:56:23;29.8;100.0
22674;DHT22;11504;43.334;21.918;2023-08-30T13:00:59;29.8;100.0
22674;DHT22;11504;43.334;21.918;2023-08-30T13:05:36;29.5;100.0
22674;DHT22;11504;43.334;21.918;2023-08-30T13:10:12;29.5;100.0
22674;DHT22;11504;43.334;21.918;2023-08-30T13:14:50;29.2;100.0
22674;DHT22;11504;43.334;21.918;2023-08-30T13:19:26;29.2;100.0
22674;DHT22;11504;43.334;21.918;2023-08-30T13:24:03;28.8;100.0
22674;DHT22;11504;43.334;21.918;2023-08-30T13:28:41;28.8;100.0
22674;DHT22;11504;43.334;21.918;2023-08-30T13:33:18;28.8;100.0
22674;DHT22;11504;43.334;21.918;2023-08-30T13:37:54;28.8;100.0
22674;DHT22;11504;43.334;21.918;2023-08-30T13:42:30;28.8;100.0
22674;DHT22;11504;43.334;21.918;2023-08-30T13:47:07;28.7;100.0
22674;DHT22;11504;43.334;21.918;2023-08-30T13:51:44;28.7;100.0
22674;DHT22;11504;43.334;21.918;2023-08-30T13:56:22;28.7;100.0
22674;DHT22;11504;43.334;21.918;2023-08-30T14:01:00;28.7;100.0
22674;DHT22;11504;43.334;21.918;2023-08-30T14:05:37;28.7;100.0
22674;DHT22;11504;43.334;21.918;2023-08-30T14:10:13;28.7;100.0
22674;DHT22;11504;43.334;21.918;2023-08-30T14:14:50;28.7;100.0
22674;DHT22;11504;43.334;21.918;2023-08-30T14:19:27;28.7;100.0
22674;DHT22;11504;43.334;21.918;2023-08-30T14:24:04;28.7;100.0
22674;DHT22;11504;43.334;21.918;2023-08-30T14:28:43;28.7;100.0
22674;DHT22;11504;43.334;21.918;2023-08-30T14:33:19;28.7;100.0
22674;DHT22;11504;43.334;21.918;2023-08-30T14:37:56;28.6;100.0
22674;DHT22;11504;43.334;21.918;2023-08-30T14:42:32;28.6;100.0
22674;DHT22;11504;43.334;21.918;2023-08-30T14:47:09;28.5;100.0
22674;DHT22;11504;43.334;21.918;2023-08-30T14:51:46;28.5;100.0
22674;DHT22;11504;43.334;21.918;2023-08-30T14:56:22;28.5;100.0
22674;DHT22;11504;43.334;21.918;2023-08-30T15:00:58;28.5;100.0
22674;DHT22;11504;43.334;21.918;2023-08-30T15:05:35;28.5;100.0
22674;DHT22;11504;43.334;21.918;2023-08-30T15:10:12;28.5;100.0
22674;DHT22;11504;43.334;21.918;2023-08-30T15:14:48;28.5;100.0
22674;DHT22;11504;43.334;21.918;2023-08-30T15:19:25;28.5;100.0
22674;DHT22;11504;43.334;21.918;2023-08-30T15:24:02;28.5;100.0
22674;DHT22;11504;43.334;21.918;2023-08-30T15:28:41;28.5;100.0
22674;DHT22;11504;43.334;21.918;2023-08-30T15:33:18;28.5;100.0
22674;DHT22;11504;43.334;21.918;2023-08-30T15:37:55;28.6;100.0
22674;DHT22;11504;43.334;21.918;2023-08-30T15:42:31;28.6;100.0
22674;DHT22;11504;43.334;21.918;2023-08-30T15:47:10;28.6;100.0
22674;DHT22;11504;43.334;21.918;2023-08-30T15:51:46;28.6;100.0
22674;DHT22;11504;43.334;21.918;2023-08-30T15:56:23;28.4;100.0
22674;DHT22;11504;43.334;21.918;2023-08-30T16:01:02;28.4;100.0
22674;DHT22;11504;43.334;21.918;2023-08-30T16:05:40;28.2;100.0
22674;DHT22;11504;43.334;21.918;2023-08-30T16:10:17;28.2;100.0
22674;DHT22;11504;43.334;21.918;2023-08-30T16:14:54;28.0;100.0
22674;DHT22;11504;43.334;21.918;2023-08-30T16:19:30;28.0;100.0
22674;DHT22;11504;43.334;21.918;2023-08-30T16:24:07;27.9;100.0
22674;DHT22;11504;43.334;21.918;2023-08-30T16:28:44;27.9;100.0
22674;DHT22;11504;43.334;21.918;2023-08-30T16:33:21;27.9;100.0
22674;DHT22;11504;43.334;21.918;2023-08-30T16:37:57;27.8;100.0
22674;DHT22;11504;43.334;21.918;2023-08-30T16:42:34;27.8;100.0
22674;DHT22;11504;43.334;21.918;2023-08-30T16:47:11;27.6;100.0
22674;DHT22;11504;43.334;21.918;2023-08-30T16:51:48;27.6;100.0
22674;DHT22;11504;43.334;21.918;2023-08-30T16:56:25;27.4;100.0
22674;DHT22;11504;43.334;21.918;2023-08-30T17:01:07;27.4;100.0
22674;DHT22;11504;43.334;21.918;2023-08-30T17:05:46;27.3;100.0
22674;DHT22;11504;43.334;21.918;2023-08-30T17:10:23;27.3;100.0
22674;DHT22;11504;43.334;21.918;2023-08-30T17:14:59;27.2;100.0
22674;DHT22;11504;43.334;21.918;2023-08-30T17:19:36;27.2;100.0
22674;DHT22;11504;43.334;21.918;2023-08-30T17:24:12;27.0;100.0
22674;DHT22;11504;43.334;21.918;2023-08-30T17:28:48;27.0;100.0
22674;DHT22;11504;43.334;21.918;2023-08-30T17:33:25;27.0;100.0
22674;DHT22;11504;43.334;21.918;2023-08-30T17:38:02;26.9;100.0
22674;DHT22;11504;43.334;21.918;2023-08-30T17:42:39;26.9;100.0
22674;DHT22;11504;43.334;21.918;2023-08-30T17:47:16;26.8;100.0
22674;DHT22;11504;43.334;21.918;2023-08-30T17:51:53;26.8;100.0
22674;DHT22;11504;43.334;21.918;2023-08-30T17:56:29;26.8;100.0
22674;DHT22;11504;43.334;21.918;2023-08-30T18:01:07;26.8;100.0
22674;DHT22;11504;43.334;21.918;2023-08-30T18:05:44;26.7;100.0
22674;DHT22;11504;43.334;21.918;2023-08-30T18:10:21;26.7;100.0
22674;DHT22;11504;43.334;21.918;2023-08-30T18:15:00;26.6;100.0
22674;DHT22;11504;43.334;21.918;2023-08-30T18:19:37;26.6;100.0
22674;DHT22;11504;43.334;21.918;2023-08-30T18:24:15;26.6;100.0
22674;DHT22;11504;43.334;21.918;2023-08-30T18:28:55;26.6;100.0
22674;DHT22;11504;43.334;21.918;2023-08-30T18:33:32;26.6;100.0
22674;DHT22;11504;43.334;21.918;2023-08-30T18:38:08;26.4;100.0
22674;DHT22;11504;43.334;21.918;2023-08-30T18:42:44;26.4;100.0
22674;DHT22;11504;43.334;21.918;2023-08-30T18:47:21;26.3;100.0
22674;DHT22;11504;43.334;21.918;2023-08-30T18:51:57;26.3;100.0
22674;DHT22;11504;43.334;21.918;2023-08-30T18:56:33;26.2;100.0
22674;DHT22;11504;43.334;21.918;2023-08-30T19:01:11;26.2;100.0
22674;DHT22;11504;43.334;21.918;2023-08-30T19:05:49;26.0;100.0
22674;DHT22;11504;43.334;21.918;2023-08-30T19:10:26;26.0;100.0
22674;DHT22;11504;43.334;21.918;2023-08-30T19:15:03;25.9;100.0
22674;DHT22;11504;43.334;21.918;2023-08-30T19:19:44;25.9;100.0
22674;DHT22;11504;43.334;21.918;2023-08-30T19:24:21;25.8;100.0
22674;DHT22;11504;43.334;21.918;2023-08-30T19:28:58;25.8;100.0
22674;DHT22;11504;43.334;21.918;2023-08-30T19:33:35;25.8;100.0
22674;DHT22;11504;43.334;21.918;2023-08-30T19:38:11;25.6;100.0
22674;DHT22;11504;43.334;21.918;2023-08-30T19:42:48;25.6;100.0
22674;DHT22;11504;43.334;21.918;2023-08-30T19:47:25;25.5;100.0
22674;DHT22;11504;43.334;21.918;2023-08-30T19:52:04;25.5;100.0
22674;DHT22;11504;43.334;21.918;2023-08-30T19:56:41;25.4;100.0
22674;DHT22;11504;43.334;21.918;2023-08-30T20:01:17;25.4;100.0
22674;DHT22;11504;43.334;21.918;2023-08-30T20:05:53;25.4;100.0
22674;DHT22;11504;43.334;21.918;2023-08-30T20:10:30;25.4;100.0
22674;DHT22;11504;43.334;21.918;2023-08-30T20:15:07;25.4;100.0
22674;DHT22;11504;43.334;21.918;2023-08-30T20:19:45;25.4;100.0
22674;DHT22;11504;43.334;21.918;2023-08-30T20:24:22;25.4;100.0
22674;DHT22;11504;43.334;21.918;2023-08-30T20:28:58;25.4;100.0
22674;DHT22;11504;43.334;21.918;2023-08-30T20:33:35;25.4;100.0
22674;DHT22;11504;43.334;21.918;2023-08-30T20:38:12;25.4;100.0
22674;DHT22;11504;43.334;21.918;2023-08-30T20:42:48;25.4;100.0
22674;DHT22;11504;43.334;21.918;2023-08-30T20:47:25;25.3;100.0
22674;DHT22;11504;43.334;21.918;2023-08-30T20:52:01;25.3;100.0
22674;DHT22;11504;43.334;21.918;2023-08-30T20:56:40;25.2;100.0
22674;DHT22;11504;43.334;21.918;2023-08-30T21:01:17;25.2;100.0
22674;DHT22;11504;43.334;21.918;2023-08-30T21:05:53;25.2;100.0
22674;DHT22;11504;43.334;21.918;2023-08-30T21:10:30;25.2;100.0
22674;DHT22;11504;43.334;21.918;2023-08-30T21:15:07;25.2;100.0
22674;DHT22;11504;43.334;21.918;2023-08-30T21:19:45;25.2;100.0
22674;DHT22;11504;43.334;21.918;2023-08-30T21:24:21;25.1;100.0
22674;DHT22;11504;43.334;21.918;2023-08-30T21:28:57;25.1;100.0
22674;DHT22;11504;43.334;21.918;2023-08-30T21:33:33;25.1;100.0
22674;DHT22;11504;43.334;21.918;2023-08-30T21:38:11;25.0;100.0
22674;DHT22;11504;43.334;21.918;2023-08-30T21:42:51;25.0;100.0
22674;DHT22;11504;43.334;21.918;2023-08-30T21:47:27;24.8;100.0
22674;DHT22;11504;43.334;21.918;2023-08-30T21:52:04;24.8;100.0
22674;DHT22;11504;43.334;21.918;2023-08-30T21:56:41;24.6;100.0
22674;DHT22;11504;43.334;21.918;2023-08-30T22:01:18;24.6;100.0
22674;DHT22;11504;43.334;21.918;2023-08-30T22:05:59;24.5;100.0
22674;DHT22;11504;43.334;21.918;2023-08-30T22:10:37;24.5;100.0
22674;DHT22;11504;43.334;21.918;2023-08-30T22:15:14;24.4;100.0
22674;DHT22;11504;43.334;21.918;2023-08-30T22:19:52;24.4;100.0
22674;DHT22;11504;43.334;21.918;2023-08-30T22:24:29;24.4;100.0
22674;DHT22;11504;43.334;21.918;2023-08-30T22:29:05;24.4;100.0
22674;DHT22;11504;43.334;21.918;2023-08-30T22:33:43;24.4;100.0
22674;DHT22;11504;43.334;21.918;2023-08-30T22:38:19;24.1;100.0
22674;DHT22;11504;43.334;21.918;2023-08-30T22:42:56;24.1;100.0
22674;DHT22;11504;43.334;21.918;2023-08-30T22:47:32;23.8;100.0
22674;DHT22;11504;43.334;21.918;2023-08-30T22:52:10;23.8;100.0
22674;DHT22;11504;43.334;21.918;2023-08-30T22:56:47;23.6;100.0
22674;DHT22;11504;43.334;21.918;2023-08-30T23:01:24;23.6;100.0
22674;DHT22;11504;43.334;21.918;2023-08-30T23:06:01;23.5;100.0
22674;DHT22;11504;43.334;21.918;2023-08-30T23:10:38;23.5;100.0
22674;DHT22;11504;43.334;21.918;2023-08-30T23:15:18;23.4;100.0
22674;DHT22;11504;43.334;21.918;2023-08-30T23:19:56;23.4;100.0
22674;DHT22;11504;43.334;21.918;2023-08-30T23:24:33;23.2;100.0
22674;DHT22;11504;43.334;21.918;2023-08-30T23:29:10;23.2;100.0
22674;DHT22;11504;43.334;21.918;2023-08-30T23:33:46;23.2;100.0
22674;DHT22;11504;43.334;21.918;2023-08-30T23:38:24;23.1;100.0
22674;DHT22;11504;43.334;21.918;2023-08-30T23:43:00;23.1;100.0
22674;DHT22;11504;43.334;21.918;2023-08-30T23:47:37;23.0;100.0
22674;DHT22;11504;43.334;21.918;2023-08-30T23:52:13;23.0;100.0
22674;DHT22;11504;43.334;21.918;2023-08-30T23:56:49;22.8;100.0
